sensor_id;sensor_type;location;lat;lon;timestamp;temperature;humidity
16974;DHT22;8603;46.944;7.412;2023-02-25T00:01:29;7.50;99.90
16974;DHT22;8603;46.944;7.412;2023-02-25T00:04:14;7.50;99.90
16974;DHT22;8603;46.944;7.412;2023-02-25T00:06:42;7.50;99.90
16974;DHT22;8603;46.944;7.412;2023-02-25T00:09:11;7.40;99.90
16974;DHT22;8603;46.944;7.412;2023-02-25T00:11:37;7.30;99.90
16974;DHT22;8603;46.944;7.412;2023-02-25T00:14:23;7.50;99.90
16974;DHT22;8603;46.944;7.412;2023-02-25T00:17:00;7.40;99.90
16974;DHT22;8603;46.944;7.412;2023-02-25T00:19:26;7.40;99.90
16974;DHT22;8603;46.944;7.412;2023-02-25T00:22:18;7.40;99.90
16974;DHT22;8603;46.944;7.412;2023-02-25T00:24:44;7.40;99.90
16974;DHT22;8603;46.944;7.412;2023-02-25T00:27:09;7.40;99.90
16974;DHT22;8603;46.944;7.412;2023-02-25T00:29:43;7.40;99.90
16974;DHT22;8603;46.944;7.412;2023-02-25T00:32:08;7.40;99.90
16974;DHT22;8603;46.944;7.412;2023-02-25T00:34:37;7.50;99.90
16974;DHT22;8603;46.944;7.412;2023-02-25T00:37:03;7.40;99.90
16974;DHT22;8603;46.944;7.412;2023-02-25T00:39:29;7.40;99.90
16974;DHT22;8603;46.944;7.412;2023-02-25T00:42:44;7.50;99.90
16974;DHT22;8603;46.944;7.412;2023-02-25T00:45:16;7.40;99.90
16974;DHT22;8603;46.944;7.412;2023-02-25T00:47:48;7.40;99.90
16974;DHT22;8603;46.944;7.412;2023-02-25T00:50:24;7.40;99.90
16974;DHT22;8603;46.944;7.412;2023-02-25T00:52:55;7.40;99.90
16974;DHT22;8603;46.944;7.412;2023-02-25T00:55:47;7.30;99.90
16974;DHT22;8603;46.944;7.412;2023-02-25T00:58:28;7.30;99.90
16974;DHT22;8603;46.944;7.412;2023-02-25T01:00:54;7.20;99.90
16974;DHT22;8603;46.944;7.412;2023-02-25T01:03:32;7.20;99.90
16974;DHT22;8603;46.944;7.412;2023-02-25T01:06:10;7.20;99.90
16974;DHT22;8603;46.944;7.412;2023-02-25T01:08:50;7.20;99.90
16974;DHT22;8603;46.944;7.412;2023-02-25T01:14:28;7.20;99.90
16974;DHT22;8603;46.944;7.412;2023-02-25T01:17:35;7.20;99.90
16974;DHT22;8603;46.944;7.412;2023-02-25T01:20:31;7.20;99.90
16974;DHT22;8603;46.944;7.412;2023-02-25T01:22:59;7.10;99.90
16974;DHT22;8603;46.944;7.412;2023-02-25T01:28:59;6.90;99.90
16974;DHT22;8603;46.944;7.412;2023-02-25T01:32:02;7.00;99.90
16974;DHT22;8603;46.944;7.412;2023-02-25T01:54:14;7.00;99.90
16974;DHT22;8603;46.944;7.412;2023-02-25T02:00:43;7.10;99.90
16974;DHT22;8603;46.944;7.412;2023-02-25T02:03:43;7.00;99.90
16974;DHT22;8603;46.944;7.412;2023-02-25T02:06:26;7.00;99.90
16974;DHT22;8603;46.944;7.412;2023-02-25T02:12:17;7.00;99.90
16974;DHT22;8603;46.944;7.412;2023-02-25T02:14:43;7.20;99.90
16974;DHT22;8603;46.944;7.412;2023-02-25T02:18:04;7.10;99.90
16974;DHT22;8603;46.944;7.412;2023-02-25T02:35:26;7.40;99.90
16974;DHT22;8603;46.944;7.412;2023-02-25T02:38:34;7.30;99.90
16974;DHT22;8603;46.944;7.412;2023-02-25T02:41:33;7.30;99.90
16974;DHT22;8603;46.944;7.412;2023-02-25T02:44:22;7.30;99.90
16974;DHT22;8603;46.944;7.412;2023-02-25T02:47:01;7.30;99.90
16974;DHT22;8603;46.944;7.412;2023-02-25T02:49:34;7.50;99.90
16974;DHT22;8603;46.944;7.412;2023-02-25T02:52:08;7.50;99.90
16974;DHT22;8603;46.944;7.412;2023-02-25T02:54:43;7.50;99.90
16974;DHT22;8603;46.944;7.412;2023-02-25T02:57:11;7.50;99.90
16974;DHT22;8603;46.944;7.412;2023-02-25T02:59:44;7.40;99.90
16974;DHT22;8603;46.944;7.412;2023-02-25T03:02:21;7.40;99.90
16974;DHT22;8603;46.944;7.412;2023-02-25T03:05:01;7.30;99.90
16974;DHT22;8603;46.944;7.412;2023-02-25T03:07:40;7.20;99.90
16974;DHT22;8603;46.944;7.412;2023-02-25T03:10:15;7.20;99.90
16974;DHT22;8603;46.944;7.412;2023-02-25T03:12:43;7.20;99.90
16974;DHT22;8603;46.944;7.412;2023-02-25T03:15:09;7.10;99.90
16974;DHT22;8603;46.944;7.412;2023-02-25T03:17:44;7.10;99.90
16974;DHT22;8603;46.944;7.412;2023-02-25T03:20:22;7.00;99.90
16974;DHT22;8603;46.944;7.412;2023-02-25T03:22:53;7.00;99.90
16974;DHT22;8603;46.944;7.412;2023-02-25T03:25:24;6.90;99.90
16974;DHT22;8603;46.944;7.412;2023-02-25T03:27:54;6.90;99.90
16974;DHT22;8603;46.944;7.412;2023-02-25T03:30:28;6.80;99.90
16974;DHT22;8603;46.944;7.412;2023-02-25T03:33:11;6.80;99.90
16974;DHT22;8603;46.944;7.412;2023-02-25T03:35:39;6.80;99.90
16974;DHT22;8603;46.944;7.412;2023-02-25T03:38:18;6.80;99.90
16974;DHT22;8603;46.944;7.412;2023-02-25T03:40:47;6.80;99.90
16974;DHT22;8603;46.944;7.412;2023-02-25T03:43:15;6.80;99.90
16974;DHT22;8603;46.944;7.412;2023-02-25T03:45:43;7.00;99.90
16974;DHT22;8603;46.944;7.412;2023-02-25T03:48:11;6.90;99.90
16974;DHT22;8603;46.944;7.412;2023-02-25T03:50:51;6.90;99.90
16974;DHT22;8603;46.944;7.412;2023-02-25T03:53:19;6.90;99.90
16974;DHT22;8603;46.944;7.412;2023-02-25T03:55:46;6.90;99.90
16974;DHT22;8603;46.944;7.412;2023-02-25T03:58:11;6.90;99.90
16974;DHT22;8603;46.944;7.412;2023-02-25T04:00:38;6.90;99.90
16974;DHT22;8603;46.944;7.412;2023-02-25T04:03:05;6.90;99.90
16974;DHT22;8603;46.944;7.412;2023-02-25T04:05:31;7.00;99.90
16974;DHT22;8603;46.944;7.412;2023-02-25T04:07:57;7.00;99.90
16974;DHT22;8603;46.944;7.412;2023-02-25T04:10:23;7.00;99.90
16974;DHT22;8603;46.944;7.412;2023-02-25T04:12:50;7.00;99.90
16974;DHT22;8603;46.944;7.412;2023-02-25T04:15:15;7.00;99.90
16974;DHT22;8603;46.944;7.412;2023-02-25T04:17:42;7.00;99.90
16974;DHT22;8603;46.944;7.412;2023-02-25T04:20:13;7.00;99.90
16974;DHT22;8603;46.944;7.412;2023-02-25T04:22:39;7.00;99.90
16974;DHT22;8603;46.944;7.412;2023-02-25T04:25:05;7.10;99.90
16974;DHT22;8603;46.944;7.412;2023-02-25T04:27:30;7.10;99.90
16974;DHT22;8603;46.944;7.412;2023-02-25T04:29:57;7.10;99.90
16974;DHT22;8603;46.944;7.412;2023-02-25T04:32:23;7.10;99.90
16974;DHT22;8603;46.944;7.412;2023-02-25T04:34:51;7.10;99.90
16974;DHT22;8603;46.944;7.412;2023-02-25T04:37:16;7.10;99.90
16974;DHT22;8603;46.944;7.412;2023-02-25T04:39:47;7.10;99.90
16974;DHT22;8603;46.944;7.412;2023-02-25T04:42:12;7.10;99.90
16974;DHT22;8603;46.944;7.412;2023-02-25T04:44:38;7.10;99.90
16974;DHT22;8603;46.944;7.412;2023-02-25T04:47:04;7.20;99.90
16974;DHT22;8603;46.944;7.412;2023-02-25T04:49:30;7.10;99.90
16974;DHT22;8603;46.944;7.412;2023-02-25T04:51:55;7.10;99.90
16974;DHT22;8603;46.944;7.412;2023-02-25T04:54:21;7.20;99.90
16974;DHT22;8603;46.944;7.412;2023-02-25T04:56:47;7.20;99.90
16974;DHT22;8603;46.944;7.412;2023-02-25T04:59:15;7.30;99.90
16974;DHT22;8603;46.944;7.412;2023-02-25T05:01:43;7.30;99.90
16974;DHT22;8603;46.944;7.412;2023-02-25T05:04:09;7.30;99.90
16974;DHT22;8603;46.944;7.412;2023-02-25T05:06:35;7.30;99.90
16974;DHT22;8603;46.944;7.412;2023-02-25T05:09:08;7.30;99.90
16974;DHT22;8603;46.944;7.412;2023-02-25T05:11:36;7.30;99.90
16974;DHT22;8603;46.944;7.412;2023-02-25T05:14:02;7.30;99.90
16974;DHT22;8603;46.944;7.412;2023-02-25T05:16:28;7.30;99.90
16974;DHT22;8603;46.944;7.412;2023-02-25T05:18:53;7.30;99.90
16974;DHT22;8603;46.944;7.412;2023-02-25T05:21:22;7.30;99.90
16974;DHT22;8603;46.944;7.412;2023-02-25T05:23:49;7.30;99.90
16974;DHT22;8603;46.944;7.412;2023-02-25T05:26:17;7.30;99.90
16974;DHT22;8603;46.944;7.412;2023-02-25T05:28:48;7.30;99.90
16974;DHT22;8603;46.944;7.412;2023-02-25T05:31:16;7.30;99.90
16974;DHT22;8603;46.944;7.412;2023-02-25T05:33:42;7.30;99.90
16974;DHT22;8603;46.944;7.412;2023-02-25T05:36:10;7.30;99.90
16974;DHT22;8603;46.944;7.412;2023-02-25T05:38:36;7.30;99.90
16974;DHT22;8603;46.944;7.412;2023-02-25T05:41:03;7.30;99.90
16974;DHT22;8603;46.944;7.412;2023-02-25T05:43:30;7.40;99.90
16974;DHT22;8603;46.944;7.412;2023-02-25T05:45:57;7.30;99.90
16974;DHT22;8603;46.944;7.412;2023-02-25T05:48:24;7.30;99.90
16974;DHT22;8603;46.944;7.412;2023-02-25T05:51:03;7.20;99.90
16974;DHT22;8603;46.944;7.412;2023-02-25T05:53:29;7.30;99.90
16974;DHT22;8603;46.944;7.412;2023-02-25T05:55:54;7.20;99.90
16974;DHT22;8603;46.944;7.412;2023-02-25T05:58:21;7.20;99.90
16974;DHT22;8603;46.944;7.412;2023-02-25T06:00:47;7.20;99.90
16974;DHT22;8603;46.944;7.412;2023-02-25T06:03:12;7.20;99.90
16974;DHT22;8603;46.944;7.412;2023-02-25T06:05:44;7.30;99.90
16974;DHT22;8603;46.944;7.412;2023-02-25T06:08:10;7.30;99.90
16974;DHT22;8603;46.944;7.412;2023-02-25T06:10:38;7.20;99.90
16974;DHT22;8603;46.944;7.412;2023-02-25T06:13:05;7.20;99.90
16974;DHT22;8603;46.944;7.412;2023-02-25T06:15:31;7.20;99.90
16974;DHT22;8603;46.944;7.412;2023-02-25T06:18:02;7.10;99.90
16974;DHT22;8603;46.944;7.412;2023-02-25T06:20:28;7.20;99.90
16974;DHT22;8603;46.944;7.412;2023-02-25T06:22:53;7.20;99.90
16974;DHT22;8603;46.944;7.412;2023-02-25T06:25:19;7.40;99.90
16974;DHT22;8603;46.944;7.412;2023-02-25T06:27:45;7.30;99.90
16974;DHT22;8603;46.944;7.412;2023-02-25T06:30:11;7.30;99.90
16974;DHT22;8603;46.944;7.412;2023-02-25T06:32:37;7.30;99.90
16974;DHT22;8603;46.944;7.412;2023-02-25T06:35:03;7.20;99.90
16974;DHT22;8603;46.944;7.412;2023-02-25T06:37:31;7.20;99.90
16974;DHT22;8603;46.944;7.412;2023-02-25T06:39:57;7.10;99.90
16974;DHT22;8603;46.944;7.412;2023-02-25T06:42:23;7.10;99.90
16974;DHT22;8603;46.944;7.412;2023-02-25T06:44:48;7.10;99.90
16974;DHT22;8603;46.944;7.412;2023-02-25T06:47:14;7.00;99.90
16974;DHT22;8603;46.944;7.412;2023-02-25T06:49:40;6.90;99.90
16974;DHT22;8603;46.944;7.412;2023-02-25T06:52:06;6.80;99.90
16974;DHT22;8603;46.944;7.412;2023-02-25T06:54:32;6.80;99.90
16974;DHT22;8603;46.944;7.412;2023-02-25T06:56:58;6.70;99.90
16974;DHT22;8603;46.944;7.412;2023-02-25T06:59:25;6.70;99.90
16974;DHT22;8603;46.944;7.412;2023-02-25T07:01:51;6.70;99.90
16974;DHT22;8603;46.944;7.412;2023-02-25T07:04:17;6.70;99.90
16974;DHT22;8603;46.944;7.412;2023-02-25T07:06:43;6.70;99.90
16974;DHT22;8603;46.944;7.412;2023-02-25T07:09:09;6.70;99.90
16974;DHT22;8603;46.944;7.412;2023-02-25T07:11:35;6.70;99.90
16974;DHT22;8603;46.944;7.412;2023-02-25T07:14:05;6.90;99.90
16974;DHT22;8603;46.944;7.412;2023-02-25T07:16:31;6.90;99.90
16974;DHT22;8603;46.944;7.412;2023-02-25T07:18:59;7.10;99.90
16974;DHT22;8603;46.944;7.412;2023-02-25T07:21:27;7.10;99.90
16974;DHT22;8603;46.944;7.412;2023-02-25T07:23:55;7.30;99.90
16974;DHT22;8603;46.944;7.412;2023-02-25T07:26:22;7.40;99.90
16974;DHT22;8603;46.944;7.412;2023-02-25T07:28:53;7.50;99.90
16974;DHT22;8603;46.944;7.412;2023-02-25T07:31:19;7.60;99.90
16974;DHT22;8603;46.944;7.412;2023-02-25T07:33:46;7.70;99.90
16974;DHT22;8603;46.944;7.412;2023-02-25T07:36:13;7.70;99.90
16974;DHT22;8603;46.944;7.412;2023-02-25T07:38:39;7.70;99.90
16974;DHT22;8603;46.944;7.412;2023-02-25T07:41:06;7.80;99.90
16974;DHT22;8603;46.944;7.412;2023-02-25T07:43:32;7.90;99.90
16974;DHT22;8603;46.944;7.412;2023-02-25T07:45:57;7.90;99.90
16974;DHT22;8603;46.944;7.412;2023-02-25T07:48:23;8.00;99.90
16974;DHT22;8603;46.944;7.412;2023-02-25T07:50:49;8.00;99.90
16974;DHT22;8603;46.944;7.412;2023-02-25T07:53:15;7.90;99.90
16974;DHT22;8603;46.944;7.412;2023-02-25T07:55:42;7.90;99.90
16974;DHT22;8603;46.944;7.412;2023-02-25T07:58:11;7.90;99.90
16974;DHT22;8603;46.944;7.412;2023-02-25T08:00:38;7.90;99.90
16974;DHT22;8603;46.944;7.412;2023-02-25T08:03:04;8.00;99.90
16974;DHT22;8603;46.944;7.412;2023-02-25T08:05:33;7.80;99.90
16974;DHT22;8603;46.944;7.412;2023-02-25T08:08:46;7.80;99.90
16974;DHT22;8603;46.944;7.412;2023-02-25T08:11:51;7.70;99.90
16974;DHT22;8603;46.944;7.412;2023-02-25T08:14:57;7.50;99.90
16974;DHT22;8603;46.944;7.412;2023-02-25T08:21:51;7.40;99.90
16974;DHT22;8603;46.944;7.412;2023-02-25T08:28:41;7.40;99.90
16974;DHT22;8603;46.944;7.412;2023-02-25T08:49:54;7.60;99.90
16974;DHT22;8603;46.944;7.412;2023-02-25T08:53:50;7.70;99.90
16974;DHT22;8603;46.944;7.412;2023-02-25T08:57:20;7.90;99.90
16974;DHT22;8603;46.944;7.412;2023-02-25T09:07:11;8.00;99.90
16974;DHT22;8603;46.944;7.412;2023-02-25T09:10:36;7.90;99.90
16974;DHT22;8603;46.944;7.412;2023-02-25T09:13:30;7.90;99.90
16974;DHT22;8603;46.944;7.412;2023-02-25T09:16:06;7.90;99.90
16974;DHT22;8603;46.944;7.412;2023-02-25T09:26:25;8.00;99.90
16974;DHT22;8603;46.944;7.412;2023-02-25T12:48:21;9.30;99.90
16974;DHT22;8603;46.944;7.412;2023-02-25T12:57:45;9.60;99.90
16974;DHT22;8603;46.944;7.412;2023-02-25T13:12:47;8.80;99.90
16974;DHT22;8603;46.944;7.412;2023-02-25T13:15:48;8.60;99.90
16974;DHT22;8603;46.944;7.412;2023-02-25T13:25:13;8.60;99.90
16974;DHT22;8603;46.944;7.412;2023-02-25T13:28:08;8.40;99.90
16974;DHT22;8603;46.944;7.412;2023-02-25T13:33:52;8.10;99.90
16974;DHT22;8603;46.944;7.412;2023-02-25T13:36:43;8.00;99.90
16974;DHT22;8603;46.944;7.412;2023-02-25T13:47:34;7.70;99.90
16974;DHT22;8603;46.944;7.412;2023-02-25T15:28:52;5.70;99.90
16974;DHT22;8603;46.944;7.412;2023-02-25T15:31:32;5.60;99.90
16974;DHT22;8603;46.944;7.412;2023-02-25T15:37:18;5.40;99.90
16974;DHT22;8603;46.944;7.412;2023-02-25T16:17:58;5.50;99.90
16974;DHT22;8603;46.944;7.412;2023-02-25T16:43:54;5.00;99.90
16974;DHT22;8603;46.944;7.412;2023-02-25T16:49:56;5.00;99.90
16974;DHT22;8603;46.944;7.412;2023-02-25T16:56:32;4.80;99.90
16974;DHT22;8603;46.944;7.412;2023-02-25T16:59:15;4.90;99.90
16974;DHT22;8603;46.944;7.412;2023-02-25T17:12:20;4.60;99.90
16974;DHT22;8603;46.944;7.412;2023-02-25T17:15:46;4.60;99.90
16974;DHT22;8603;46.944;7.412;2023-02-25T17:18:57;4.70;99.90
16974;DHT22;8603;46.944;7.412;2023-02-25T17:25:02;4.50;99.90
16974;DHT22;8603;46.944;7.412;2023-02-25T17:35:58;4.60;99.90
16974;DHT22;8603;46.944;7.412;2023-02-25T17:42:28;4.50;99.90
16974;DHT22;8603;46.944;7.412;2023-02-25T17:52:29;4.50;99.90
16974;DHT22;8603;46.944;7.412;2023-02-25T17:55:19;4.50;99.90
16974;DHT22;8603;46.944;7.412;2023-02-25T18:04:37;4.40;99.90
16974;DHT22;8603;46.944;7.412;2023-02-25T18:10:58;4.40;99.90
16974;DHT22;8603;46.944;7.412;2023-02-25T18:13:41;4.50;99.90
16974;DHT22;8603;46.944;7.412;2023-02-25T18:23:30;4.40;99.90
16974;DHT22;8603;46.944;7.412;2023-02-25T18:26:19;4.50;99.90
16974;DHT22;8603;46.944;7.412;2023-02-25T18:28:48;4.40;99.90
16974;DHT22;8603;46.944;7.412;2023-02-25T18:31:14;4.30;99.90
16974;DHT22;8603;46.944;7.412;2023-02-25T18:37:16;4.30;99.90
16974;DHT22;8603;46.944;7.412;2023-02-25T18:39:59;4.20;99.90
16974;DHT22;8603;46.944;7.412;2023-02-25T18:42:42;4.20;99.90
16974;DHT22;8603;46.944;7.412;2023-02-25T18:45:17;4.20;99.90
16974;DHT22;8603;46.944;7.412;2023-02-25T18:47:43;4.20;99.90
16974;DHT22;8603;46.944;7.412;2023-02-25T18:50:10;4.10;99.90
16974;DHT22;8603;46.944;7.412;2023-02-25T18:52:38;4.10;99.90
16974;DHT22;8603;46.944;7.412;2023-02-25T18:55:05;4.00;99.90
16974;DHT22;8603;46.944;7.412;2023-02-25T18:57:38;4.00;99.90
16974;DHT22;8603;46.944;7.412;2023-02-25T19:00:29;4.00;99.90
16974;DHT22;8603;46.944;7.412;2023-02-25T19:03:25;4.00;99.90
16974;DHT22;8603;46.944;7.412;2023-02-25T19:06:20;4.00;99.90
16974;DHT22;8603;46.944;7.412;2023-02-25T19:09:24;3.90;99.90
16974;DHT22;8603;46.944;7.412;2023-02-25T19:11:50;3.90;99.90
16974;DHT22;8603;46.944;7.412;2023-02-25T19:14:16;3.90;99.90
16974;DHT22;8603;46.944;7.412;2023-02-25T19:16:44;3.90;99.90
16974;DHT22;8603;46.944;7.412;2023-02-25T19:19:16;3.90;99.90
16974;DHT22;8603;46.944;7.412;2023-02-25T19:22:14;3.90;99.90
16974;DHT22;8603;46.944;7.412;2023-02-25T19:24:53;3.80;99.90
16974;DHT22;8603;46.944;7.412;2023-02-25T19:27:25;3.80;99.90
16974;DHT22;8603;46.944;7.412;2023-02-25T19:33:21;3.70;99.90
16974;DHT22;8603;46.944;7.412;2023-02-25T19:39:14;3.70;99.90
16974;DHT22;8603;46.944;7.412;2023-02-25T19:41:48;3.70;99.90
16974;DHT22;8603;46.944;7.412;2023-02-25T19:44:21;3.80;99.90
16974;DHT22;8603;46.944;7.412;2023-02-25T19:46:47;3.60;99.90
16974;DHT22;8603;46.944;7.412;2023-02-25T19:52:03;3.60;99.90
16974;DHT22;8603;46.944;7.412;2023-02-25T19:54:32;3.60;99.90
16974;DHT22;8603;46.944;7.412;2023-02-25T19:57:22;3.60;99.90
16974;DHT22;8603;46.944;7.412;2023-02-25T20:00:05;3.50;99.90
16974;DHT22;8603;46.944;7.412;2023-02-25T20:06:09;3.50;99.90
16974;DHT22;8603;46.944;7.412;2023-02-25T20:08:37;3.50;99.90
16974;DHT22;8603;46.944;7.412;2023-02-25T20:11:12;3.50;99.90
16974;DHT22;8603;46.944;7.412;2023-02-25T20:14:04;3.40;99.90
16974;DHT22;8603;46.944;7.412;2023-02-25T20:17:06;3.40;99.90
16974;DHT22;8603;46.944;7.412;2023-02-25T20:19:34;3.40;99.90
16974;DHT22;8603;46.944;7.412;2023-02-25T20:22:04;3.40;99.90
16974;DHT22;8603;46.944;7.412;2023-02-25T20:24:44;3.40;99.90
16974;DHT22;8603;46.944;7.412;2023-02-25T20:27:22;3.50;99.90
16974;DHT22;8603;46.944;7.412;2023-02-25T20:30:15;3.40;99.90
16974;DHT22;8603;46.944;7.412;2023-02-25T20:32:43;3.40;99.90
16974;DHT22;8603;46.944;7.412;2023-02-25T20:35:17;3.30;99.90
16974;DHT22;8603;46.944;7.412;2023-02-25T20:38:29;3.30;99.90
16974;DHT22;8603;46.944;7.412;2023-02-25T20:40:59;3.30;99.90
16974;DHT22;8603;46.944;7.412;2023-02-25T20:43:45;3.30;99.90
16974;DHT22;8603;46.944;7.412;2023-02-25T20:46:29;3.30;99.90
16974;DHT22;8603;46.944;7.412;2023-02-25T20:48:55;3.30;99.90
16974;DHT22;8603;46.944;7.412;2023-02-25T20:51:21;3.20;99.90
16974;DHT22;8603;46.944;7.412;2023-02-25T20:54:00;3.30;99.90
16974;DHT22;8603;46.944;7.412;2023-02-25T20:56:56;3.30;99.90
16974;DHT22;8603;46.944;7.412;2023-02-25T20:59:24;3.30;99.90
16974;DHT22;8603;46.944;7.412;2023-02-25T21:01:50;3.20;99.90
16974;DHT22;8603;46.944;7.412;2023-02-25T21:04:16;3.40;99.90
16974;DHT22;8603;46.944;7.412;2023-02-25T21:06:45;3.30;99.90
16974;DHT22;8603;46.944;7.412;2023-02-25T21:09:10;3.30;99.90
16974;DHT22;8603;46.944;7.412;2023-02-25T21:11:49;3.30;99.90
16974;DHT22;8603;46.944;7.412;2023-02-25T21:14:17;3.30;99.90
16974;DHT22;8603;46.944;7.412;2023-02-25T21:17:13;3.30;99.90
16974;DHT22;8603;46.944;7.412;2023-02-25T21:19:42;3.20;99.90
16974;DHT22;8603;46.944;7.412;2023-02-25T21:22:29;3.20;99.90
16974;DHT22;8603;46.944;7.412;2023-02-25T21:25:20;3.30;99.90
16974;DHT22;8603;46.944;7.412;2023-02-25T21:31:25;3.20;99.90
16974;DHT22;8603;46.944;7.412;2023-02-25T21:37:24;3.20;99.90
16974;DHT22;8603;46.944;7.412;2023-02-25T21:39:59;3.30;99.90
16974;DHT22;8603;46.944;7.412;2023-02-25T21:42:31;3.40;99.90
16974;DHT22;8603;46.944;7.412;2023-02-25T21:44:57;3.30;99.90
16974;DHT22;8603;46.944;7.412;2023-02-25T21:47:22;3.30;99.90
16974;DHT22;8603;46.944;7.412;2023-02-25T21:49:55;3.30;99.90
16974;DHT22;8603;46.944;7.412;2023-02-25T21:52:44;3.30;99.90
16974;DHT22;8603;46.944;7.412;2023-02-25T21:55:10;3.40;99.90
16974;DHT22;8603;46.944;7.412;2023-02-25T22:24:20;3.00;99.90
16974;DHT22;8603;46.944;7.412;2023-02-25T22:27:09;3.00;99.90
16974;DHT22;8603;46.944;7.412;2023-02-25T22:36:33;2.90;99.90
16974;DHT22;8603;46.944;7.412;2023-02-25T22:42:24;3.00;99.90
16974;DHT22;8603;46.944;7.412;2023-02-25T22:45:02;3.00;99.90
16974;DHT22;8603;46.944;7.412;2023-02-25T22:47:33;3.00;99.90
16974;DHT22;8603;46.944;7.412;2023-02-25T22:50:36;3.00;99.90
16974;DHT22;8603;46.944;7.412;2023-02-25T22:53:20;3.00;99.90
16974;DHT22;8603;46.944;7.412;2023-02-25T22:55:48;3.00;99.90
16974;DHT22;8603;46.944;7.412;2023-02-25T22:58:19;3.10;99.90
16974;DHT22;8603;46.944;7.412;2023-02-25T23:05:12;2.90;99.90
16974;DHT22;8603;46.944;7.412;2023-02-25T23:28:07;2.90;99.90
16974;DHT22;8603;46.944;7.412;2023-02-25T23:30:39;2.70;99.90
16974;DHT22;8603;46.944;7.412;2023-02-25T23:33:15;2.90;99.90
16974;DHT22;8603;46.944;7.412;2023-02-25T23:36:04;2.90;99.90
16974;DHT22;8603;46.944;7.412;2023-02-25T23:38:33;2.90;99.90
16974;DHT22;8603;46.944;7.412;2023-02-25T23:44:10;2.90;99.90
16974;DHT22;8603;46.944;7.412;2023-02-25T23:53:39;2.90;99.90
16974;DHT22;8603;46.944;7.412;2023-02-25T23:56:10;2.80;99.90
16974;DHT22;8603;46.944;7.412;2023-02-25T23:59:14;2.80;99.90
